sensor_id;sensor_type;location;lat;lon;timestamp;temperature;humidity
31991;DHT22;18508;49.386;8.370;2022-09-30T00:01:54;9.80;99.90
31991;DHT22;18508;49.386;8.370;2022-09-30T00:04:23;9.80;99.90
31991;DHT22;18508;49.386;8.370;2022-09-30T00:06:52;9.70;99.90
31991;DHT22;18508;49.386;8.370;2022-09-30T00:09:23;9.70;99.90
31991;DHT22;18508;49.386;8.370;2022-09-30T00:11:52;9.70;99.90
31991;DHT22;18508;49.386;8.370;2022-09-30T00:14:22;9.70;99.90
31991;DHT22;18508;49.386;8.370;2022-09-30T00:16:51;9.70;99.90
31991;DHT22;18508;49.386;8.370;2022-09-30T00:19:20;9.70;99.90
31991;DHT22;18508;49.386;8.370;2022-09-30T00:21:49;9.70;99.90
31991;DHT22;18508;49.386;8.370;2022-09-30T00:24:17;9.70;99.90
31991;DHT22;18508;49.386;8.370;2022-09-30T00:26:47;9.70;99.90
31991;DHT22;18508;49.386;8.370;2022-09-30T00:29:16;9.70;99.90
31991;DHT22;18508;49.386;8.370;2022-09-30T00:31:45;9.60;99.90
31991;DHT22;18508;49.386;8.370;2022-09-30T00:34:14;9.60;99.90
31991;DHT22;18508;49.386;8.370;2022-09-30T00:36:47;9.60;99.90
31991;DHT22;18508;49.386;8.370;2022-09-30T00:39:18;9.60;99.90
31991;DHT22;18508;49.386;8.370;2022-09-30T00:41:51;9.60;99.90
31991;DHT22;18508;49.386;8.370;2022-09-30T00:44:46;9.60;99.90
31991;DHT22;18508;49.386;8.370;2022-09-30T00:47:22;9.50;99.90
31991;DHT22;18508;49.386;8.370;2022-09-30T00:49:52;9.50;99.90
31991;DHT22;18508;49.386;8.370;2022-09-30T00:52:20;9.50;99.90
31991;DHT22;18508;49.386;8.370;2022-09-30T00:54:49;9.50;99.90
31991;DHT22;18508;49.386;8.370;2022-09-30T00:57:19;9.50;99.90
31991;DHT22;18508;49.386;8.370;2022-09-30T00:59:49;9.40;99.90
31991;DHT22;18508;49.386;8.370;2022-09-30T01:02:19;9.40;99.90
31991;DHT22;18508;49.386;8.370;2022-09-30T01:04:49;9.40;99.90
31991;DHT22;18508;49.386;8.370;2022-09-30T01:07:17;9.40;99.90
31991;DHT22;18508;49.386;8.370;2022-09-30T01:09:48;9.40;99.90
31991;DHT22;18508;49.386;8.370;2022-09-30T01:12:21;9.40;99.90
31991;DHT22;18508;49.386;8.370;2022-09-30T01:14:52;9.30;99.90
31991;DHT22;18508;49.386;8.370;2022-09-30T01:17:30;9.30;99.90
31991;DHT22;18508;49.386;8.370;2022-09-30T01:20:40;9.30;99.90
31991;DHT22;18508;49.386;8.370;2022-09-30T01:23:28;9.30;99.90
31991;DHT22;18508;49.386;8.370;2022-09-30T01:26:26;9.30;99.90
31991;DHT22;18508;49.386;8.370;2022-09-30T01:32:17;9.10;99.90
31991;DHT22;18508;49.386;8.370;2022-09-30T01:34:52;9.10;99.90
31991;DHT22;18508;49.386;8.370;2022-09-30T01:37:36;9.10;99.90
31991;DHT22;18508;49.386;8.370;2022-09-30T01:40:14;9.00;99.90
31991;DHT22;18508;49.386;8.370;2022-09-30T01:42:53;9.00;99.90
31991;DHT22;18508;49.386;8.370;2022-09-30T01:45:30;8.90;99.90
31991;DHT22;18508;49.386;8.370;2022-09-30T01:48:04;8.90;99.90
31991;DHT22;18508;49.386;8.370;2022-09-30T01:50:41;8.90;99.90
31991;DHT22;18508;49.386;8.370;2022-09-30T01:53:14;8.80;99.90
31991;DHT22;18508;49.386;8.370;2022-09-30T01:55:49;8.80;99.90
31991;DHT22;18508;49.386;8.370;2022-09-30T01:58:21;8.70;99.90
31991;DHT22;18508;49.386;8.370;2022-09-30T02:00:57;8.70;99.90
31991;DHT22;18508;49.386;8.370;2022-09-30T02:03:32;8.60;99.90
31991;DHT22;18508;49.386;8.370;2022-09-30T02:06:06;8.60;99.90
31991;DHT22;18508;49.386;8.370;2022-09-30T02:08:40;8.60;99.90
31991;DHT22;18508;49.386;8.370;2022-09-30T02:11:13;8.60;99.90
31991;DHT22;18508;49.386;8.370;2022-09-30T02:13:47;8.50;99.90
31991;DHT22;18508;49.386;8.370;2022-09-30T02:16:22;8.50;99.90
31991;DHT22;18508;49.386;8.370;2022-09-30T02:18:57;8.50;99.90
31991;DHT22;18508;49.386;8.370;2022-09-30T02:21:30;8.50;99.90
31991;DHT22;18508;49.386;8.370;2022-09-30T02:24:02;8.40;99.90
31991;DHT22;18508;49.386;8.370;2022-09-30T02:26:36;8.40;99.90
31991;DHT22;18508;49.386;8.370;2022-09-30T02:29:09;8.40;99.90
31991;DHT22;18508;49.386;8.370;2022-09-30T02:31:41;8.40;99.90
31991;DHT22;18508;49.386;8.370;2022-09-30T02:34:14;8.40;99.90
31991;DHT22;18508;49.386;8.370;2022-09-30T02:36:50;8.40;99.90
31991;DHT22;18508;49.386;8.370;2022-09-30T02:39:20;8.30;99.90
31991;DHT22;18508;49.386;8.370;2022-09-30T02:41:53;8.30;99.90
31991;DHT22;18508;49.386;8.370;2022-09-30T02:44:22;8.20;99.90
31991;DHT22;18508;49.386;8.370;2022-09-30T02:46:55;8.20;99.90
31991;DHT22;18508;49.386;8.370;2022-09-30T02:49:34;8.20;99.90
31991;DHT22;18508;49.386;8.370;2022-09-30T02:52:12;8.10;99.90
31991;DHT22;18508;49.386;8.370;2022-09-30T02:54:49;8.10;99.90
31991;DHT22;18508;49.386;8.370;2022-09-30T02:57:34;8.10;99.90
31991;DHT22;18508;49.386;8.370;2022-09-30T03:00:04;8.00;99.90
31991;DHT22;18508;49.386;8.370;2022-09-30T03:02:39;8.00;99.90
31991;DHT22;18508;49.386;8.370;2022-09-30T03:05:09;7.90;99.90
31991;DHT22;18508;49.386;8.370;2022-09-30T03:07:39;7.90;99.90
31991;DHT22;18508;49.386;8.370;2022-09-30T03:10:13;7.90;99.90
31991;DHT22;18508;49.386;8.370;2022-09-30T03:12:56;7.90;99.90
31991;DHT22;18508;49.386;8.370;2022-09-30T03:15:41;7.80;99.90
31991;DHT22;18508;49.386;8.370;2022-09-30T03:18:32;7.80;99.90
31991;DHT22;18508;49.386;8.370;2022-09-30T03:21:16;7.80;99.90
31991;DHT22;18508;49.386;8.370;2022-09-30T03:24:01;7.70;99.90
31991;DHT22;18508;49.386;8.370;2022-09-30T03:26:41;7.70;99.90
31991;DHT22;18508;49.386;8.370;2022-09-30T03:29:21;7.70;99.90
31991;DHT22;18508;49.386;8.370;2022-09-30T03:31:57;7.60;99.90
31991;DHT22;18508;49.386;8.370;2022-09-30T03:34:33;7.50;99.90
31991;DHT22;18508;49.386;8.370;2022-09-30T03:37:11;7.50;99.90
31991;DHT22;18508;49.386;8.370;2022-09-30T03:39:53;7.50;99.90
31991;DHT22;18508;49.386;8.370;2022-09-30T03:42:27;7.40;99.90
31991;DHT22;18508;49.386;8.370;2022-09-30T03:45:03;7.40;99.90
31991;DHT22;18508;49.386;8.370;2022-09-30T03:47:38;7.40;99.90
31991;DHT22;18508;49.386;8.370;2022-09-30T03:50:11;7.40;99.90
31991;DHT22;18508;49.386;8.370;2022-09-30T03:52:42;7.30;99.90
31991;DHT22;18508;49.386;8.370;2022-09-30T03:55:10;7.30;99.90
31991;DHT22;18508;49.386;8.370;2022-09-30T03:57:39;7.20;99.90
31991;DHT22;18508;49.386;8.370;2022-09-30T04:00:08;7.20;99.90
31991;DHT22;18508;49.386;8.370;2022-09-30T04:02:36;7.20;99.90
31991;DHT22;18508;49.386;8.370;2022-09-30T04:05:06;7.10;99.90
31991;DHT22;18508;49.386;8.370;2022-09-30T04:07:37;7.10;99.90
31991;DHT22;18508;49.386;8.370;2022-09-30T04:10:08;7.00;99.90
31991;DHT22;18508;49.386;8.370;2022-09-30T04:12:36;7.00;99.90
31991;DHT22;18508;49.386;8.370;2022-09-30T04:15:06;7.00;99.90
31991;DHT22;18508;49.386;8.370;2022-09-30T04:17:37;7.00;99.90
31991;DHT22;18508;49.386;8.370;2022-09-30T04:20:05;6.90;99.90
31991;DHT22;18508;49.386;8.370;2022-09-30T04:22:34;6.90;99.90
31991;DHT22;18508;49.386;8.370;2022-09-30T04:25:07;6.90;99.90
31991;DHT22;18508;49.386;8.370;2022-09-30T04:27:35;6.90;99.90
31991;DHT22;18508;49.386;8.370;2022-09-30T04:30:05;6.80;99.90
31991;DHT22;18508;49.386;8.370;2022-09-30T04:32:33;6.90;99.90
31991;DHT22;18508;49.386;8.370;2022-09-30T04:35:02;6.80;99.90
31991;DHT22;18508;49.386;8.370;2022-09-30T04:37:31;6.70;99.90
31991;DHT22;18508;49.386;8.370;2022-09-30T04:39:59;6.70;99.90
31991;DHT22;18508;49.386;8.370;2022-09-30T04:42:30;6.60;99.90
31991;DHT22;18508;49.386;8.370;2022-09-30T04:44:59;6.60;99.90
31991;DHT22;18508;49.386;8.370;2022-09-30T04:47:29;6.50;99.90
31991;DHT22;18508;49.386;8.370;2022-09-30T04:49:58;6.60;99.90
31991;DHT22;18508;49.386;8.370;2022-09-30T04:52:28;6.50;99.90
31991;DHT22;18508;49.386;8.370;2022-09-30T04:54:57;6.50;99.90
31991;DHT22;18508;49.386;8.370;2022-09-30T04:57:27;6.50;99.90
31991;DHT22;18508;49.386;8.370;2022-09-30T04:59:57;6.50;99.90
31991;DHT22;18508;49.386;8.370;2022-09-30T05:02:26;6.50;99.90
31991;DHT22;18508;49.386;8.370;2022-09-30T05:04:54;6.50;99.90
31991;DHT22;18508;49.386;8.370;2022-09-30T05:07:23;6.50;99.90
31991;DHT22;18508;49.386;8.370;2022-09-30T05:09:53;6.50;99.90
31991;DHT22;18508;49.386;8.370;2022-09-30T05:12:24;6.50;99.90
31991;DHT22;18508;49.386;8.370;2022-09-30T05:14:53;6.50;99.90
31991;DHT22;18508;49.386;8.370;2022-09-30T05:17:27;6.40;99.90
31991;DHT22;18508;49.386;8.370;2022-09-30T05:20:02;6.40;99.90
31991;DHT22;18508;49.386;8.370;2022-09-30T05:22:31;6.40;99.90
31991;DHT22;18508;49.386;8.370;2022-09-30T05:25:00;6.40;99.90
31991;DHT22;18508;49.386;8.370;2022-09-30T05:27:30;6.40;99.90
31991;DHT22;18508;49.386;8.370;2022-09-30T05:29:59;6.40;99.90
31991;DHT22;18508;49.386;8.370;2022-09-30T05:32:32;6.30;99.90
31991;DHT22;18508;49.386;8.370;2022-09-30T05:35:03;6.30;99.90
31991;DHT22;18508;49.386;8.370;2022-09-30T05:37:32;6.20;99.90
31991;DHT22;18508;49.386;8.370;2022-09-30T05:40:04;6.30;99.90
31991;DHT22;18508;49.386;8.370;2022-09-30T05:42:33;6.20;99.90
31991;DHT22;18508;49.386;8.370;2022-09-30T05:45:03;6.20;99.90
31991;DHT22;18508;49.386;8.370;2022-09-30T05:47:34;6.20;99.90
31991;DHT22;18508;49.386;8.370;2022-09-30T05:50:03;6.20;99.90
31991;DHT22;18508;49.386;8.370;2022-09-30T05:52:45;6.20;99.90
31991;DHT22;18508;49.386;8.370;2022-09-30T05:55:52;6.20;99.90
31991;DHT22;18508;49.386;8.370;2022-09-30T05:58:36;6.20;99.90
31991;DHT22;18508;49.386;8.370;2022-09-30T06:01:11;6.20;99.90
31991;DHT22;18508;49.386;8.370;2022-09-30T06:03:45;6.20;99.90
31991;DHT22;18508;49.386;8.370;2022-09-30T06:06:14;6.30;99.90
31991;DHT22;18508;49.386;8.370;2022-09-30T06:08:46;6.30;99.90
31991;DHT22;18508;49.386;8.370;2022-09-30T06:11:17;6.40;99.90
31991;DHT22;18508;49.386;8.370;2022-09-30T06:13:47;6.40;99.90
31991;DHT22;18508;49.386;8.370;2022-09-30T06:16:16;6.50;99.90
31991;DHT22;18508;49.386;8.370;2022-09-30T06:18:47;6.50;99.90
31991;DHT22;18508;49.386;8.370;2022-09-30T06:21:16;6.60;99.90
31991;DHT22;18508;49.386;8.370;2022-09-30T06:23:47;6.70;99.90
31991;DHT22;18508;49.386;8.370;2022-09-30T06:26:17;6.80;99.90
31991;DHT22;18508;49.386;8.370;2022-09-30T06:28:46;6.80;99.90
31991;DHT22;18508;49.386;8.370;2022-09-30T06:31:26;6.90;99.90
31991;DHT22;18508;49.386;8.370;2022-09-30T06:34:17;7.00;99.90
31991;DHT22;18508;49.386;8.370;2022-09-30T06:36:48;7.20;99.90
31991;DHT22;18508;49.386;8.370;2022-09-30T06:39:16;7.30;99.90
31991;DHT22;18508;49.386;8.370;2022-09-30T06:41:45;7.50;99.90
31991;DHT22;18508;49.386;8.370;2022-09-30T06:44:17;7.60;99.90
31991;DHT22;18508;49.386;8.370;2022-09-30T06:47:00;7.80;99.90
31991;DHT22;18508;49.386;8.370;2022-09-30T06:49:53;7.90;99.90
31991;DHT22;18508;49.386;8.370;2022-09-30T06:52:25;8.10;99.90
31991;DHT22;18508;49.386;8.370;2022-09-30T06:54:54;8.30;99.90
31991;DHT22;18508;49.386;8.370;2022-09-30T06:57:24;8.50;99.90
31991;DHT22;18508;49.386;8.370;2022-09-30T06:59:55;8.60;99.90
31991;DHT22;18508;49.386;8.370;2022-09-30T07:02:24;8.90;99.90
31991;DHT22;18508;49.386;8.370;2022-09-30T07:04:54;9.00;99.90
31991;DHT22;18508;49.386;8.370;2022-09-30T07:07:23;9.20;99.90
31991;DHT22;18508;49.386;8.370;2022-09-30T07:09:51;9.40;99.90
31991;DHT22;18508;49.386;8.370;2022-09-30T07:12:25;9.60;99.90
31991;DHT22;18508;49.386;8.370;2022-09-30T07:14:54;9.70;99.90
31991;DHT22;18508;49.386;8.370;2022-09-30T07:17:26;9.80;99.90
31991;DHT22;18508;49.386;8.370;2022-09-30T07:19:57;10.10;99.90
31991;DHT22;18508;49.386;8.370;2022-09-30T07:22:26;10.30;99.90
31991;DHT22;18508;49.386;8.370;2022-09-30T07:24:56;10.40;99.90
31991;DHT22;18508;49.386;8.370;2022-09-30T07:27:32;10.40;99.90
31991;DHT22;18508;49.386;8.370;2022-09-30T07:30:00;10.50;99.90
31991;DHT22;18508;49.386;8.370;2022-09-30T07:32:38;10.50;99.90
31991;DHT22;18508;49.386;8.370;2022-09-30T07:35:08;10.70;99.90
31991;DHT22;18508;49.386;8.370;2022-09-30T07:37:37;10.60;99.90
31991;DHT22;18508;49.386;8.370;2022-09-30T07:40:07;10.60;99.90
31991;DHT22;18508;49.386;8.370;2022-09-30T07:42:37;10.50;99.90
31991;DHT22;18508;49.386;8.370;2022-09-30T07:45:12;10.60;99.90
31991;DHT22;18508;49.386;8.370;2022-09-30T07:47:41;10.50;99.90
31991;DHT22;18508;49.386;8.370;2022-09-30T07:50:20;10.60;99.90
31991;DHT22;18508;49.386;8.370;2022-09-30T07:52:49;10.50;99.90
31991;DHT22;18508;49.386;8.370;2022-09-30T07:55:20;10.40;99.90
31991;DHT22;18508;49.386;8.370;2022-09-30T07:57:49;10.40;99.90
31991;DHT22;18508;49.386;8.370;2022-09-30T08:00:18;10.50;99.90
31991;DHT22;18508;49.386;8.370;2022-09-30T08:03:08;10.50;99.90
31991;DHT22;18508;49.386;8.370;2022-09-30T08:05:40;10.50;99.90
31991;DHT22;18508;49.386;8.370;2022-09-30T08:08:12;10.70;99.90
31991;DHT22;18508;49.386;8.370;2022-09-30T08:10:45;10.70;99.90
31991;DHT22;18508;49.386;8.370;2022-09-30T08:13:15;10.70;99.90
31991;DHT22;18508;49.386;8.370;2022-09-30T08:15:46;10.70;99.90
31991;DHT22;18508;49.386;8.370;2022-09-30T08:18:16;10.90;99.90
31991;DHT22;18508;49.386;8.370;2022-09-30T08:20:49;11.00;99.90
31991;DHT22;18508;49.386;8.370;2022-09-30T08:23:19;11.00;99.90
31991;DHT22;18508;49.386;8.370;2022-09-30T08:25:51;10.90;99.90
31991;DHT22;18508;49.386;8.370;2022-09-30T08:28:29;10.90;99.90
31991;DHT22;18508;49.386;8.370;2022-09-30T08:31:05;10.90;99.90
31991;DHT22;18508;49.386;8.370;2022-09-30T08:33:39;10.80;99.90
31991;DHT22;18508;49.386;8.370;2022-09-30T08:36:19;10.90;99.90
31991;DHT22;18508;49.386;8.370;2022-09-30T08:38:49;11.00;99.90
31991;DHT22;18508;49.386;8.370;2022-09-30T08:41:32;11.00;99.90
31991;DHT22;18508;49.386;8.370;2022-09-30T08:44:19;11.10;99.90
31991;DHT22;18508;49.386;8.370;2022-09-30T08:46:57;11.30;99.90
31991;DHT22;18508;49.386;8.370;2022-09-30T08:49:53;11.50;99.90
31991;DHT22;18508;49.386;8.370;2022-09-30T08:52:44;11.60;99.90
31991;DHT22;18508;49.386;8.370;2022-09-30T08:55:20;11.60;99.90
31991;DHT22;18508;49.386;8.370;2022-09-30T08:57:52;11.70;99.90
31991;DHT22;18508;49.386;8.370;2022-09-30T09:00:23;11.80;99.90
31991;DHT22;18508;49.386;8.370;2022-09-30T09:02:54;12.10;99.90
31991;DHT22;18508;49.386;8.370;2022-09-30T09:05:32;12.10;99.90
31991;DHT22;18508;49.386;8.370;2022-09-30T09:08:24;12.10;99.90
31991;DHT22;18508;49.386;8.370;2022-09-30T09:11:04;12.20;99.90
31991;DHT22;18508;49.386;8.370;2022-09-30T09:13:45;12.40;99.90
31991;DHT22;18508;49.386;8.370;2022-09-30T09:16:23;12.40;99.90
31991;DHT22;18508;49.386;8.370;2022-09-30T09:19:03;12.60;99.90
31991;DHT22;18508;49.386;8.370;2022-09-30T09:21:48;12.60;99.90
31991;DHT22;18508;49.386;8.370;2022-09-30T09:24:40;12.80;99.90
31991;DHT22;18508;49.386;8.370;2022-09-30T09:27:18;12.90;99.90
31991;DHT22;18508;49.386;8.370;2022-09-30T09:29:54;13.10;99.90
31991;DHT22;18508;49.386;8.370;2022-09-30T09:32:27;13.20;26.20
31991;DHT22;18508;49.386;8.370;2022-09-30T09:34:59;13.30;30.10
31991;DHT22;18508;49.386;8.370;2022-09-30T09:37:36;13.20;1.00
31991;DHT22;18508;49.386;8.370;2022-09-30T09:40:40;13.30;39.80
31991;DHT22;18508;49.386;8.370;2022-09-30T09:43:26;13.50;1.00
31991;DHT22;18508;49.386;8.370;2022-09-30T09:46:04;13.70;1.00
31991;DHT22;18508;49.386;8.370;2022-09-30T09:48:37;13.60;1.00
31991;DHT22;18508;49.386;8.370;2022-09-30T09:51:18;13.80;1.00
31991;DHT22;18508;49.386;8.370;2022-09-30T09:53:51;13.90;1.00
31991;DHT22;18508;49.386;8.370;2022-09-30T09:56:30;14.20;1.00
31991;DHT22;18508;49.386;8.370;2022-09-30T09:59:13;14.10;1.00
31991;DHT22;18508;49.386;8.370;2022-09-30T10:01:47;14.00;1.00
31991;DHT22;18508;49.386;8.370;2022-09-30T10:04:18;14.00;1.00
31991;DHT22;18508;49.386;8.370;2022-09-30T10:06:54;14.20;1.00
31991;DHT22;18508;49.386;8.370;2022-09-30T10:09:31;14.30;1.00
31991;DHT22;18508;49.386;8.370;2022-09-30T10:12:30;14.50;1.00
31991;DHT22;18508;49.386;8.370;2022-09-30T10:15:02;14.50;99.90
31991;DHT22;18508;49.386;8.370;2022-09-30T10:17:37;14.50;1.00
31991;DHT22;18508;49.386;8.370;2022-09-30T10:20:19;14.60;1.00
31991;DHT22;18508;49.386;8.370;2022-09-30T10:23:00;14.70;1.00
31991;DHT22;18508;49.386;8.370;2022-09-30T10:25:32;14.80;8.70
31991;DHT22;18508;49.386;8.370;2022-09-30T10:28:24;14.90;1.00
31991;DHT22;18508;49.386;8.370;2022-09-30T10:30:59;15.10;99.90
31991;DHT22;18508;49.386;8.370;2022-09-30T10:33:35;15.30;1.00
31991;DHT22;18508;49.386;8.370;2022-09-30T10:36:12;15.40;99.90
31991;DHT22;18508;49.386;8.370;2022-09-30T10:39:05;15.40;99.90
31991;DHT22;18508;49.386;8.370;2022-09-30T10:41:38;15.60;99.90
31991;DHT22;18508;49.386;8.370;2022-09-30T10:44:15;15.80;1.00
31991;DHT22;18508;49.386;8.370;2022-09-30T10:46:57;15.80;99.90
31991;DHT22;18508;49.386;8.370;2022-09-30T10:49:42;16.00;99.90
31991;DHT22;18508;49.386;8.370;2022-09-30T10:52:18;16.20;1.00
31991;DHT22;18508;49.386;8.370;2022-09-30T10:54:50;16.20;1.00
31991;DHT22;18508;49.386;8.370;2022-09-30T10:57:22;16.30;1.00
31991;DHT22;18508;49.386;8.370;2022-09-30T10:59:58;16.40;1.00
31991;DHT22;18508;49.386;8.370;2022-09-30T11:02:37;16.60;1.00
31991;DHT22;18508;49.386;8.370;2022-09-30T11:05:15;16.60;1.00
31991;DHT22;18508;49.386;8.370;2022-09-30T11:07:53;16.70;1.00
31991;DHT22;18508;49.386;8.370;2022-09-30T11:10:35;16.60;1.00
31991;DHT22;18508;49.386;8.370;2022-09-30T11:13:14;16.80;1.00
31991;DHT22;18508;49.386;8.370;2022-09-30T11:15:55;17.10;1.00
31991;DHT22;18508;49.386;8.370;2022-09-30T11:18:33;17.00;1.00
31991;DHT22;18508;49.386;8.370;2022-09-30T11:21:19;17.00;1.00
31991;DHT22;18508;49.386;8.370;2022-09-30T11:23:52;17.00;1.00
31991;DHT22;18508;49.386;8.370;2022-09-30T11:26:31;17.00;1.00
31991;DHT22;18508;49.386;8.370;2022-09-30T11:29:27;16.90;1.00
31991;DHT22;18508;49.386;8.370;2022-09-30T11:32:26;17.20;1.00
31991;DHT22;18508;49.386;8.370;2022-09-30T11:35:03;17.40;1.00
31991;DHT22;18508;49.386;8.370;2022-09-30T11:38:00;17.50;1.00
31991;DHT22;18508;49.386;8.370;2022-09-30T11:40:48;17.70;1.00
31991;DHT22;18508;49.386;8.370;2022-09-30T11:43:37;17.60;1.00
31991;DHT22;18508;49.386;8.370;2022-09-30T11:46:25;17.40;1.00
31991;DHT22;18508;49.386;8.370;2022-09-30T11:49:24;17.40;1.00
31991;DHT22;18508;49.386;8.370;2022-09-30T11:52:10;17.40;1.00
31991;DHT22;18508;49.386;8.370;2022-09-30T11:54:58;17.80;1.00
31991;DHT22;18508;49.386;8.370;2022-09-30T11:57:49;18.10;1.00
31991;DHT22;18508;49.386;8.370;2022-09-30T12:00:24;18.20;1.00
31991;DHT22;18508;49.386;8.370;2022-09-30T12:02:54;18.40;1.00
31991;DHT22;18508;49.386;8.370;2022-09-30T12:05:40;18.30;1.00
31991;DHT22;18508;49.386;8.370;2022-09-30T12:08:17;18.20;1.00
31991;DHT22;18508;49.386;8.370;2022-09-30T12:10:56;18.00;1.00
31991;DHT22;18508;49.386;8.370;2022-09-30T12:13:32;17.80;1.00
31991;DHT22;18508;49.386;8.370;2022-09-30T12:16:15;17.90;1.00
31991;DHT22;18508;49.386;8.370;2022-09-30T12:19:03;18.10;1.00
31991;DHT22;18508;49.386;8.370;2022-09-30T12:21:46;18.20;1.00
31991;DHT22;18508;49.386;8.370;2022-09-30T12:24:24;18.50;1.00
31991;DHT22;18508;49.386;8.370;2022-09-30T12:26:59;18.60;1.00
31991;DHT22;18508;49.386;8.370;2022-09-30T12:29:35;18.80;1.00
31991;DHT22;18508;49.386;8.370;2022-09-30T12:32:56;19.00;1.00
31991;DHT22;18508;49.386;8.370;2022-09-30T12:38:51;19.90;1.00
31991;DHT22;18508;49.386;8.370;2022-09-30T12:41:33;20.00;1.00
31991;DHT22;18508;49.386;8.370;2022-09-30T12:47:34;19.90;1.00
31991;DHT22;18508;49.386;8.370;2022-09-30T12:50:13;20.00;1.00
31991;DHT22;18508;49.386;8.370;2022-09-30T12:52:49;19.90;1.00
31991;DHT22;18508;49.386;8.370;2022-09-30T12:55:27;20.00;1.00
31991;DHT22;18508;49.386;8.370;2022-09-30T12:58:05;20.20;1.00
31991;DHT22;18508;49.386;8.370;2022-09-30T13:00:36;20.00;1.00
31991;DHT22;18508;49.386;8.370;2022-09-30T13:03:26;20.00;1.00
31991;DHT22;18508;49.386;8.370;2022-09-30T13:06:01;20.10;1.00
31991;DHT22;18508;49.386;8.370;2022-09-30T13:11:39;20.50;1.00
31991;DHT22;18508;49.386;8.370;2022-09-30T13:14:33;19.90;1.00
31991;DHT22;18508;49.386;8.370;2022-09-30T13:17:32;19.90;1.00
31991;DHT22;18508;49.386;8.370;2022-09-30T13:20:49;20.00;1.00
31991;DHT22;18508;49.386;8.370;2022-09-30T13:23:38;19.60;1.00
31991;DHT22;18508;49.386;8.370;2022-09-30T13:26:34;19.60;1.00
31991;DHT22;18508;49.386;8.370;2022-09-30T13:32:32;20.00;1.00
31991;DHT22;18508;49.386;8.370;2022-09-30T13:35:30;19.90;1.00
31991;DHT22;18508;49.386;8.370;2022-09-30T13:38:20;20.20;1.00
31991;DHT22;18508;49.386;8.370;2022-09-30T13:41:13;20.60;1.00
31991;DHT22;18508;49.386;8.370;2022-09-30T13:43:55;20.80;1.00
31991;DHT22;18508;49.386;8.370;2022-09-30T13:46:35;20.60;1.00
31991;DHT22;18508;49.386;8.370;2022-09-30T13:49:15;20.80;1.00
31991;DHT22;18508;49.386;8.370;2022-09-30T13:51:46;21.00;1.00
31991;DHT22;18508;49.386;8.370;2022-09-30T13:54:24;20.80;1.00
31991;DHT22;18508;49.386;8.370;2022-09-30T13:56:58;20.40;1.00
31991;DHT22;18508;49.386;8.370;2022-09-30T13:59:45;19.90;1.00
31991;DHT22;18508;49.386;8.370;2022-09-30T14:08:41;18.90;1.00
31991;DHT22;18508;49.386;8.370;2022-09-30T14:11:38;18.50;1.00
31991;DHT22;18508;49.386;8.370;2022-09-30T14:14:52;18.60;1.00
31991;DHT22;18508;49.386;8.370;2022-09-30T14:17:41;19.10;1.00
31991;DHT22;18508;49.386;8.370;2022-09-30T14:20:28;19.90;1.00
31991;DHT22;18508;49.386;8.370;2022-09-30T14:22:59;20.80;1.00
31991;DHT22;18508;49.386;8.370;2022-09-30T14:25:35;21.10;1.00
31991;DHT22;18508;49.386;8.370;2022-09-30T14:28:09;20.60;1.00
31991;DHT22;18508;49.386;8.370;2022-09-30T14:30:41;20.20;1.00
31991;DHT22;18508;49.386;8.370;2022-09-30T14:33:35;19.80;1.00
31991;DHT22;18508;49.386;8.370;2022-09-30T14:36:11;19.70;1.00
31991;DHT22;18508;49.386;8.370;2022-09-30T14:38:59;19.20;1.00
31991;DHT22;18508;49.386;8.370;2022-09-30T14:41:35;19.10;1.00
31991;DHT22;18508;49.386;8.370;2022-09-30T14:44:12;19.30;1.00
31991;DHT22;18508;49.386;8.370;2022-09-30T14:46:47;20.00;1.00
31991;DHT22;18508;49.386;8.370;2022-09-30T14:49:18;20.30;1.00
31991;DHT22;18508;49.386;8.370;2022-09-30T14:51:54;21.10;1.00
31991;DHT22;18508;49.386;8.370;2022-09-30T14:54:25;21.40;1.00
31991;DHT22;18508;49.386;8.370;2022-09-30T14:57:00;21.20;1.00
31991;DHT22;18508;49.386;8.370;2022-09-30T14:59:33;21.10;1.00
31991;DHT22;18508;49.386;8.370;2022-09-30T15:02:13;20.50;1.00
31991;DHT22;18508;49.386;8.370;2022-09-30T15:04:49;20.20;1.00
31991;DHT22;18508;49.386;8.370;2022-09-30T15:07:20;20.30;1.00
31991;DHT22;18508;49.386;8.370;2022-09-30T15:09:59;20.80;1.00
31991;DHT22;18508;49.386;8.370;2022-09-30T15:12:33;21.30;1.00
31991;DHT22;18508;49.386;8.370;2022-09-30T15:18:25;22.30;1.00
31991;DHT22;18508;49.386;8.370;2022-09-30T15:20:57;22.30;1.00
31991;DHT22;18508;49.386;8.370;2022-09-30T15:23:28;22.70;1.00
31991;DHT22;18508;49.386;8.370;2022-09-30T15:25:59;22.70;99.90
31991;DHT22;18508;49.386;8.370;2022-09-30T15:28:31;23.00;99.90
31991;DHT22;18508;49.386;8.370;2022-09-30T15:31:05;22.50;99.90
31991;DHT22;18508;49.386;8.370;2022-09-30T15:33:37;22.20;99.90
31991;DHT22;18508;49.386;8.370;2022-09-30T15:36:11;22.50;99.90
31991;DHT22;18508;49.386;8.370;2022-09-30T15:38:47;22.80;99.90
31991;DHT22;18508;49.386;8.370;2022-09-30T15:41:17;22.90;99.90
31991;DHT22;18508;49.386;8.370;2022-09-30T15:43:50;23.20;99.90
31991;DHT22;18508;49.386;8.370;2022-09-30T15:46:29;22.90;99.90
31991;DHT22;18508;49.386;8.370;2022-09-30T15:49:29;21.90;99.90
31991;DHT22;18508;49.386;8.370;2022-09-30T15:52:28;20.70;99.90
31991;DHT22;18508;49.386;8.370;2022-09-30T15:55:34;20.30;99.90
31991;DHT22;18508;49.386;8.370;2022-09-30T15:58:32;19.90;99.90
31991;DHT22;18508;49.386;8.370;2022-09-30T16:01:14;19.40;1.00
31991;DHT22;18508;49.386;8.370;2022-09-30T16:03:51;18.50;1.00
31991;DHT22;18508;49.386;8.370;2022-09-30T16:06:30;18.10;1.00
31991;DHT22;18508;49.386;8.370;2022-09-30T16:09:03;17.70;1.00
31991;DHT22;18508;49.386;8.370;2022-09-30T16:11:42;17.30;1.00
31991;DHT22;18508;49.386;8.370;2022-09-30T16:14:23;17.10;1.00
31991;DHT22;18508;49.386;8.370;2022-09-30T16:17:00;16.90;1.00
31991;DHT22;18508;49.386;8.370;2022-09-30T16:19:32;16.70;1.00
31991;DHT22;18508;49.386;8.370;2022-09-30T16:22:33;16.80;1.00
31991;DHT22;18508;49.386;8.370;2022-09-30T16:25:15;16.80;1.00
31991;DHT22;18508;49.386;8.370;2022-09-30T16:27:48;16.60;1.00
31991;DHT22;18508;49.386;8.370;2022-09-30T16:30:24;16.50;1.00
31991;DHT22;18508;49.386;8.370;2022-09-30T16:32:58;16.40;1.00
31991;DHT22;18508;49.386;8.370;2022-09-30T16:35:32;16.40;1.00
31991;DHT22;18508;49.386;8.370;2022-09-30T16:38:08;16.20;1.00
31991;DHT22;18508;49.386;8.370;2022-09-30T16:40:39;16.50;1.00
31991;DHT22;18508;49.386;8.370;2022-09-30T16:43:10;16.10;1.00
31991;DHT22;18508;49.386;8.370;2022-09-30T16:45:41;15.90;1.00
31991;DHT22;18508;49.386;8.370;2022-09-30T16:48:15;15.80;1.00
31991;DHT22;18508;49.386;8.370;2022-09-30T16:50:51;15.60;1.00
31991;DHT22;18508;49.386;8.370;2022-09-30T16:53:23;15.50;1.00
31991;DHT22;18508;49.386;8.370;2022-09-30T16:55:54;15.40;1.00
31991;DHT22;18508;49.386;8.370;2022-09-30T16:58:29;15.30;1.00
31991;DHT22;18508;49.386;8.370;2022-09-30T17:00:58;15.10;1.00
31991;DHT22;18508;49.386;8.370;2022-09-30T17:03:29;15.00;1.40
31991;DHT22;18508;49.386;8.370;2022-09-30T17:06:01;14.90;4.90
31991;DHT22;18508;49.386;8.370;2022-09-30T17:08:33;14.80;16.80